Time;durP1;ratioP1;P1;durP2;ratioP2;P2;SDS_P1;SDS_P2;PMS_P1;PMS_P2;Temp;Humidity;BMP_temperature;BMP_pressure;BME280_temperature;BME280_humidity;BME280_pressure;Samples;Min_cycle;Max_cycle;Signal;HPM_P1;HPM_P2
2021/05/19 00:01:41;;;;;;;2.80;2.60;;;;;;;;;;5019431;28;20262;-71
2021/05/19 00:04:07;;;;;;;3.57;2.93;;;;;;;;;;5019289;28;20192;-71
2021/05/19 00:06:34;;;;;;;5.13;2.77;;;;;;;;;;5018711;28;20539;-70
2021/05/19 00:09:00;;;;;;;3.33;3.03;;;;;;;;;;5029251;28;20232;-72
2021/05/19 00:11:26;;;;;;;4.20;2.77;;;;;;;;;;5023220;28;20213;-72
2021/05/19 00:13:52;;;;;;;3.33;2.50;;;;;;;;;;5024976;28;20247;-72
2021/05/19 00:16:18;;;;;;;2.80;2.47;;;;;;;;;;5019451;28;20192;-71
2021/05/19 00:18:44;;;;;;;3.53;2.77;;;;;;;;;;5023164;28;20329;-72
2021/05/19 00:21:10;;;;;;;2.87;2.40;;;;;;;;;;5020020;28;20312;-71
2021/05/19 00:23:36;;;;;;;5.10;3.10;;;;;;;;;;5024901;28;20245;-72
2021/05/19 00:26:03;;;;;;;2.70;2.50;;;;;;;;;;5029086;28;20214;-72
2021/05/19 00:28:29;;;;;;;6.27;2.70;;;;;;;;;;5030440;28;20188;-71
2021/05/19 00:30:56;;;;;;;2.67;2.47;;;;;;;;;;5028360;28;20216;-70
2021/05/19 00:33:22;;;;;;;2.90;2.60;;;;;;;;;;5023856;28;20185;-71
2021/05/19 00:35:49;;;;;;;2.50;2.37;;;;;;;;;;5029997;28;20188;-71
2021/05/19 00:38:15;;;;;;;3.97;2.30;;;;;;;;;;5032745;28;20229;-71
2021/05/19 00:40:41;;;;;;;5.30;3.93;;;;;;;;;;5031499;28;20231;-71
2021/05/19 00:43:07;;;;;;;3.70;2.33;;;;;;;;;;5027206;28;20283;-71
2021/05/19 00:45:33;;;;;;;2.60;2.40;;;;;;;;;;5033079;28;20874;-72
2021/05/19 00:47:59;;;;;;;3.60;2.63;;;;;;;;;;5024288;28;20288;-70
2021/05/19 00:50:27;;;;;;;2.80;2.60;;;;;;;;;;5031180;28;20216;-72
2021/05/19 00:52:53;;;;;;;2.90;2.33;;;;;;;;;;5030947;28;20181;-71
2021/05/19 00:55:19;;;;;;;8.43;2.90;;;;;;;;;;5032769;28;20185;-71
2021/05/19 00:57:45;;;;;;;2.70;2.53;;;;;;;;;;5025625;28;20176;-70
2021/05/19 01:00:13;;;;;;;2.40;2.30;;;;;;;;;;5019541;28;20619;-72
2021/05/19 01:02:39;;;;;;;2.47;2.33;;;;;;;;;;5027193;28;20199;-71
2021/05/19 01:05:09;;;;;;;2.50;2.30;;;;;;;;;;5024968;28;20899;-72
2021/05/19 01:07:37;;;;;;;4.70;2.37;;;;;;;;;;5028574;28;20667;-72
2021/05/19 01:10:04;;;;;;;3.23;2.17;;;;;;;;;;5027975;28;20211;-71
2021/05/19 01:12:30;;;;;;;4.90;2.40;;;;;;;;;;5020614;28;20607;-71
2021/05/19 01:14:56;;;;;;;3.10;2.17;;;;;;;;;;5025268;28;20192;-71
2021/05/19 01:17:22;;;;;;;2.80;2.10;;;;;;;;;;5025826;28;20193;-72
2021/05/19 01:19:50;;;;;;;4.33;2.37;;;;;;;;;;5028551;28;20570;-72
2021/05/19 01:22:26;;;;;;;2.10;2.00;;;;;;;;;;5028250;28;20193;-70
2021/05/19 01:24:53;;;;;;;2.53;2.30;;;;;;;;;;5027089;28;20807;-71
2021/05/19 01:27:19;;;;;;;2.20;2.00;;;;;;;;;;5025158;28;20191;-71
2021/05/19 01:29:49;;;;;;;2.70;2.50;;;;;;;;;;5028206;28;20221;-71
2021/05/19 01:32:15;;;;;;;2.70;2.50;;;;;;;;;;5025555;28;20699;-71
2021/05/19 01:34:41;;;;;;;3.03;2.60;;;;;;;;;;5025992;28;20220;-70
2021/05/19 01:37:11;;;;;;;2.60;2.40;;;;;;;;;;5034869;28;20619;-73
2021/05/19 01:39:37;;;;;;;2.20;2.10;;;;;;;;;;5026572;28;20211;-71
2021/05/19 01:42:03;;;;;;;2.43;2.33;;;;;;;;;;5026349;28;20192;-73
2021/05/19 01:44:29;;;;;;;3.20;2.10;;;;;;;;;;5023449;28;20251;-72
2021/05/19 01:46:55;;;;;;;2.33;2.13;;;;;;;;;;5023071;28;20185;-72
2021/05/19 01:49:22;;;;;;;4.80;2.70;;;;;;;;;;5025005;28;20199;-71
2021/05/19 01:51:49;;;;;;;2.50;2.30;;;;;;;;;;5021523;28;20215;-71
2021/05/19 01:54:16;;;;;;;3.43;2.47;;;;;;;;;;5023612;28;20947;-71
2021/05/19 01:56:42;;;;;;;2.67;2.47;;;;;;;;;;5028141;28;20197;-71
2021/05/19 01:59:08;;;;;;;3.43;2.20;;;;;;;;;;5026257;28;20238;-71
2021/05/19 02:01:35;;;;;;;2.60;2.40;;;;;;;;;;5022314;28;20200;-71
2021/05/19 02:04:08;;;;;;;2.60;2.40;;;;;;;;;;5029933;28;20283;-71
2021/05/19 02:06:44;;;;;;;2.70;2.50;;;;;;;;;;5028364;28;20196;-71
2021/05/19 02:09:10;;;;;;;3.00;2.70;;;;;;;;;;5025800;28;20202;-71
2021/05/19 02:11:36;;;;;;;2.37;2.17;;;;;;;;;;5022985;28;20209;-71
2021/05/19 02:14:02;;;;;;;3.53;2.20;;;;;;;;;;5027859;28;20188;-72
2021/05/19 02:16:28;;;;;;;2.53;2.30;;;;;;;;;;5028255;28;20330;-72
2021/05/19 02:18:54;;;;;;;2.90;2.70;;;;;;;;;;5027128;28;20666;-72
2021/05/19 02:21:20;;;;;;;2.60;2.40;;;;;;;;;;5032462;28;20217;-71
2021/05/19 02:23:46;;;;;;;2.87;2.67;;;;;;;;;;5030220;28;20238;-72
2021/05/19 02:26:13;;;;;;;3.73;2.50;;;;;;;;;;5018258;28;20219;-71
2021/05/19 02:28:39;;;;;;;2.80;2.40;;;;;;;;;;5028621;28;20659;-72
2021/05/19 02:31:05;;;;;;;2.80;2.60;;;;;;;;;;5020200;28;20227;-71
2021/05/19 02:33:30;;;;;;;2.53;2.30;;;;;;;;;;5030049;28;20200;-70
2021/05/19 02:35:57;;;;;;;2.90;2.70;;;;;;;;;;5030227;28;20714;-70
2021/05/19 02:38:23;;;;;;;4.27;2.80;;;;;;;;;;5022881;28;20189;-70
2021/05/19 02:40:49;;;;;;;3.73;2.50;;;;;;;;;;5026136;28;20208;-71
2021/05/19 02:43:15;;;;;;;3.20;2.40;;;;;;;;;;5026123;28;20194;-71
2021/05/19 02:45:41;;;;;;;4.97;3.63;;;;;;;;;;5028762;28;20206;-71
2021/05/19 02:48:07;;;;;;;3.13;2.40;;;;;;;;;;5026151;28;20633;-71
2021/05/19 02:50:33;;;;;;;2.40;2.20;;;;;;;;;;5030209;28;20260;-72
2021/05/19 02:52:59;;;;;;;2.93;2.30;;;;;;;;;;5027498;28;20540;-72
2021/05/19 02:55:26;;;;;;;2.70;2.50;;;;;;;;;;5027037;28;20185;-71
2021/05/19 02:57:52;;;;;;;2.50;2.30;;;;;;;;;;5020620;28;20188;-72
2021/05/19 03:00:18;;;;;;;2.70;2.50;;;;;;;;;;5021885;28;20213;-72
2021/05/19 03:02:44;;;;;;;2.60;2.40;;;;;;;;;;5027610;28;20195;-72
2021/05/19 03:05:10;;;;;;;3.43;2.20;;;;;;;;;;5028454;28;20648;-71
2021/05/19 03:07:36;;;;;;;2.67;2.40;;;;;;;;;;5022553;28;20565;-71
2021/05/19 03:10:03;;;;;;;2.80;2.43;;;;;;;;;;5025248;28;20266;-72
2021/05/19 03:12:29;;;;;;;2.57;2.37;;;;;;;;;;5026106;28;20217;-70
2021/05/19 03:14:56;;;;;;;2.70;2.50;;;;;;;;;;5022316;28;20184;-71
2021/05/19 03:17:22;;;;;;;2.83;2.63;;;;;;;;;;5027840;28;20310;-71
2021/05/19 03:19:48;;;;;;;3.37;2.30;;;;;;;;;;5026002;28;20222;-72
2021/05/19 03:22:14;;;;;;;2.40;2.30;;;;;;;;;;5012916;28;20229;-71
2021/05/19 03:24:41;;;;;;;3.73;2.77;;;;;;;;;;5021490;28;20227;-71
2021/05/19 03:27:07;;;;;;;2.80;2.60;;;;;;;;;;5023612;28;20664;-71
2021/05/19 03:29:33;;;;;;;3.53;3.23;;;;;;;;;;5028645;28;20250;-71
2021/05/19 03:31:59;;;;;;;2.77;2.57;;;;;;;;;;5013826;28;20247;-71
2021/05/19 03:34:25;;;;;;;2.93;2.70;;;;;;;;;;5020891;28;20237;-71
2021/05/19 03:36:51;;;;;;;3.10;2.80;;;;;;;;;;5023933;28;20191;-71
2021/05/19 03:39:17;;;;;;;4.17;2.70;;;;;;;;;;5022927;28;20204;-71
2021/05/19 03:41:43;;;;;;;3.20;2.50;;;;;;;;;;5019644;28;20191;-71
2021/05/19 03:44:09;;;;;;;2.97;2.77;;;;;;;;;;5021340;28;20193;-71
2021/05/19 03:46:36;;;;;;;3.20;2.90;;;;;;;;;;5024106;28;20726;-71
2021/05/19 03:49:02;;;;;;;3.17;2.97;;;;;;;;;;5023302;28;20263;-71
2021/05/19 03:51:29;;;;;;;3.77;3.10;;;;;;;;;;5030328;28;20282;-71
2021/05/19 03:53:56;;;;;;;3.60;3.30;;;;;;;;;;5026041;28;20184;-71
2021/05/19 03:56:22;;;;;;;6.00;3.40;;;;;;;;;;5026639;28;20400;-72
2021/05/19 03:58:48;;;;;;;3.50;3.00;;;;;;;;;;5030330;28;20211;-71
2021/05/19 04:01:14;;;;;;;4.23;2.97;;;;;;;;;;5022964;28;20219;-71
2021/05/19 04:03:40;;;;;;;3.70;3.27;;;;;;;;;;5026286;28;20196;-71
2021/05/19 04:06:06;;;;;;;5.90;4.20;;;;;;;;;;5033159;28;20196;-71
2021/05/19 04:08:36;;;;;;;4.43;3.93;;;;;;;;;;5031782;28;20211;-71
2021/05/19 04:11:02;;;;;;;3.77;3.43;;;;;;;;;;5026064;28;20741;-73
2021/05/19 04:13:28;;;;;;;3.60;3.30;;;;;;;;;;5027246;28;20535;-72
2021/05/19 04:15:54;;;;;;;3.27;3.07;;;;;;;;;;5033163;28;20678;-71
2021/05/19 04:18:21;;;;;;;3.27;3.07;;;;;;;;;;5029479;28;20675;-71
2021/05/19 04:20:48;;;;;;;6.23;3.40;;;;;;;;;;5029951;28;20209;-71
2021/05/19 04:23:15;;;;;;;3.57;3.27;;;;;;;;;;5026957;28;20185;-70
2021/05/19 04:25:42;;;;;;;4.37;3.10;;;;;;;;;;5028004;28;20648;-71
2021/05/19 04:28:08;;;;;;;3.47;3.17;;;;;;;;;;5021901;28;20196;-71
2021/05/19 04:30:34;;;;;;;3.20;2.93;;;;;;;;;;5027563;28;20590;-71
2021/05/19 04:33:00;;;;;;;3.53;3.23;;;;;;;;;;5025204;28;20273;-70
2021/05/19 04:35:26;;;;;;;3.23;3.00;;;;;;;;;;5028383;28;20192;-71
2021/05/19 04:37:52;;;;;;;3.60;3.30;;;;;;;;;;5028101;28;20185;-70
2021/05/19 04:40:18;;;;;;;3.13;2.83;;;;;;;;;;5023412;28;20209;-73
2021/05/19 04:42:44;;;;;;;2.70;2.60;;;;;;;;;;5032909;28;20217;-70
2021/05/19 04:45:11;;;;;;;2.93;2.70;;;;;;;;;;5027288;28;20239;-71
2021/05/19 04:47:37;;;;;;;2.53;2.33;;;;;;;;;;5028141;28;20189;-71
2021/05/19 04:50:07;;;;;;;3.23;3.00;;;;;;;;;;5019085;28;20306;-71
2021/05/19 04:52:33;;;;;;;3.10;2.80;;;;;;;;;;5022083;28;20204;-71
2021/05/19 04:55:01;;;;;;;4.83;2.60;;;;;;;;;;5026060;28;20219;-70
2021/05/19 04:57:28;;;;;;;3.80;2.93;;;;;;;;;;5026522;28;20180;-70
2021/05/19 04:59:54;;;;;;;2.90;2.70;;;;;;;;;;5031608;28;20565;-70
2021/05/19 05:02:20;;;;;;;3.57;3.27;;;;;;;;;;5025647;28;20204;-70
2021/05/19 05:04:46;;;;;;;3.03;2.83;;;;;;;;;;5026781;28;20289;-69
2021/05/19 05:07:12;;;;;;;4.43;3.13;;;;;;;;;;5029723;28;21238;-70
2021/05/19 05:09:38;;;;;;;3.87;3.23;;;;;;;;;;5029526;28;20831;-69
2021/05/19 05:12:04;;;;;;;3.30;2.60;;;;;;;;;;5028650;28;20211;-69
2021/05/19 05:14:30;;;;;;;3.30;3.10;;;;;;;;;;5021580;28;20185;-69
2021/05/19 05:16:56;;;;;;;3.87;3.20;;;;;;;;;;5019721;28;20212;-70
2021/05/19 05:19:22;;;;;;;3.80;3.00;;;;;;;;;;5024088;28;20181;-69
2021/05/19 05:21:48;;;;;;;3.60;3.30;;;;;;;;;;5023935;28;20672;-70
2021/05/19 05:24:14;;;;;;;3.17;2.93;;;;;;;;;;5029762;28;20184;-70
2021/05/19 05:26:40;;;;;;;3.80;3.50;;;;;;;;;;5029412;28;20199;-70
2021/05/19 05:29:06;;;;;;;3.70;3.40;;;;;;;;;;5033147;28;20202;-70
2021/05/19 05:31:32;;;;;;;4.00;3.70;;;;;;;;;;5026999;28;20237;-70
2021/05/19 05:33:58;;;;;;;3.50;3.30;;;;;;;;;;5030356;28;20189;-70
2021/05/19 05:36:24;;;;;;;3.37;3.17;;;;;;;;;;5024564;28;20605;-70
2021/05/19 05:38:50;;;;;;;4.13;3.77;;;;;;;;;;5026360;28;20195;-71
2021/05/19 05:41:16;;;;;;;4.43;3.80;;;;;;;;;;5028556;28;20242;-71
2021/05/19 05:43:42;;;;;;;4.80;3.53;;;;;;;;;;5025538;28;20227;-71
2021/05/19 05:46:09;;;;;;;4.07;3.67;;;;;;;;;;5022894;28;20287;-70
2021/05/19 05:48:35;;;;;;;3.43;3.13;;;;;;;;;;5019774;28;20199;-70
2021/05/19 05:51:01;;;;;;;3.70;3.40;;;;;;;;;;5026243;28;20212;-70
2021/05/19 05:53:27;;;;;;;3.83;3.00;;;;;;;;;;5030694;28;20659;-70
2021/05/19 05:55:53;;;;;;;3.50;3.20;;;;;;;;;;5029478;28;20186;-70
2021/05/19 05:58:19;;;;;;;3.47;3.20;;;;;;;;;;5031902;28;20300;-70
2021/05/19 06:00:45;;;;;;;4.00;3.53;;;;;;;;;;5025071;28;20239;-71
2021/05/19 06:03:11;;;;;;;4.40;3.00;;;;;;;;;;5020181;28;20188;-71
2021/05/19 06:05:37;;;;;;;3.10;2.87;;;;;;;;;;5020198;28;20192;-71
2021/05/19 06:08:05;;;;;;;3.53;2.93;;;;;;;;;;5022378;28;20192;-71
2021/05/19 06:10:31;;;;;;;6.10;2.93;;;;;;;;;;5017627;28;20338;-71
2021/05/19 06:12:57;;;;;;;3.13;2.93;;;;;;;;;;5014680;28;20204;-71
2021/05/19 06:15:23;;;;;;;2.60;2.40;;;;;;;;;;5024782;28;20736;-72
2021/05/19 06:17:49;;;;;;;2.70;2.50;;;;;;;;;;5027363;28;20186;-70
2021/05/19 06:20:15;;;;;;;3.05;2.15;;;;;;;;;;5027264;28;20212;-71
2021/05/19 06:22:41;;;;;;;6.07;2.50;;;;;;;;;;5026168;28;20191;-71
2021/05/19 06:25:08;;;;;;;3.70;2.30;;;;;;;;;;5023657;28;20196;-71
2021/05/19 06:27:34;;;;;;;3.08;2.70;;;;;;;;;;5025400;28;20542;-70
2021/05/19 06:30:00;;;;;;;3.42;2.45;;;;;;;;;;5025011;28;20723;-70
2021/05/19 06:32:26;;;;;;;3.00;2.47;;;;;;;;;;5026582;28;20259;-70
2021/05/19 06:34:53;;;;;;;2.58;2.38;;;;;;;;;;5029364;28;20185;-71
2021/05/19 06:37:19;;;;;;;2.58;2.35;;;;;;;;;;5025679;28;20578;-70
2021/05/19 06:39:45;;;;;;;3.15;2.70;;;;;;;;;;5019779;28;20766;-70
2021/05/19 06:42:11;;;;;;;2.80;2.55;;;;;;;;;;5028891;28;20270;-70
2021/05/19 06:44:37;;;;;;;3.65;2.47;;;;;;;;;;5026917;28;20220;-70
2021/05/19 06:47:04;;;;;;;4.07;2.50;;;;;;;;;;5023420;28;20216;-70
2021/05/19 06:49:30;;;;;;;5.65;2.72;;;;;;;;;;5026341;28;20594;-70
2021/05/19 06:51:56;;;;;;;5.97;2.78;;;;;;;;;;5028019;28;20206;-71
2021/05/19 06:54:23;;;;;;;2.80;2.58;;;;;;;;;;5022103;28;20219;-71
2021/05/19 06:56:49;;;;;;;2.88;2.67;;;;;;;;;;5029602;28;20184;-70
2021/05/19 06:59:17;;;;;;;9.43;3.03;;;;;;;;;;5021830;28;20525;-70
2021/05/19 07:01:43;;;;;;;2.75;2.55;;;;;;;;;;5028597;28;20194;-70
2021/05/19 07:04:10;;;;;;;4.95;2.70;;;;;;;;;;5021885;28;20396;-70
2021/05/19 07:06:36;;;;;;;2.72;2.50;;;;;;;;;;5025667;28;20237;-70
2021/05/19 07:09:03;;;;;;;2.70;2.50;;;;;;;;;;5028257;28;20226;-69
2021/05/19 07:11:29;;;;;;;2.60;2.40;;;;;;;;;;5022202;28;20215;-69
2021/05/19 07:13:57;;;;;;;2.83;2.50;;;;;;;;;;5022821;28;20184;-70
2021/05/19 07:16:24;;;;;;;2.40;2.20;;;;;;;;;;5019503;28;20934;-70
2021/05/19 07:18:52;;;;;;;3.08;2.75;;;;;;;;;;5019431;28;20180;-70
2021/05/19 07:21:18;;;;;;;2.72;2.53;;;;;;;;;;5018898;28;20212;-70
2021/05/19 07:23:44;;;;;;;4.18;2.70;;;;;;;;;;5016513;28;20211;-71
2021/05/19 07:26:10;;;;;;;2.72;2.40;;;;;;;;;;5018961;28;20253;-70
2021/05/19 07:28:36;;;;;;;2.55;2.35;;;;;;;;;;5018949;28;20185;-70
2021/05/19 07:31:02;;;;;;;4.00;2.17;;;;;;;;;;5024736;28;20219;-70
2021/05/19 07:33:29;;;;;;;3.63;2.22;;;;;;;;;;5029658;28;20184;-70
2021/05/19 07:35:55;;;;;;;2.28;2.08;;;;;;;;;;5029011;28;20263;-70
2021/05/19 07:38:21;;;;;;;2.42;2.10;;;;;;;;;;5029839;28;20193;-70
2021/05/19 07:40:47;;;;;;;6.53;1.92;;;;;;;;;;5018022;28;20570;-70
2021/05/19 07:43:13;;;;;;;2.63;1.83;;;;;;;;;;5031063;28;20234;-70
2021/05/19 07:45:39;;;;;;;1.95;1.80;;;;;;;;;;5024492;28;20181;-70
2021/05/19 07:48:06;;;;;;;3.17;2.40;;;;;;;;;;5023747;28;20180;-71
2021/05/19 07:50:32;;;;;;;2.85;1.85;;;;;;;;;;5022373;28;20595;-70
2021/05/19 07:52:58;;;;;;;3.08;1.73;;;;;;;;;;5023413;28;20202;-70
2021/05/19 08:02:48;;;;;;;2.38;1.73;;;;;;;;;;5020341;28;20892;-70
2021/05/19 08:05:14;;;;;;;2.10;1.85;;;;;;;;;;5022179;28;20235;-70
2021/05/19 08:07:40;;;;;;;2.70;2.20;;;;;;;;;;5020329;28;20184;-71
2021/05/19 08:10:06;;;;;;;3.47;2.33;;;;;;;;;;5022763;28;20209;-70
2021/05/19 08:12:32;;;;;;;3.15;2.15;;;;;;;;;;5024124;28;20617;-70
2021/05/19 08:14:59;;;;;;;2.70;2.25;;;;;;;;;;5020491;28;20185;-70
2021/05/19 08:17:25;;;;;;;3.92;2.47;;;;;;;;;;5023833;28;20184;-70
2021/05/19 08:19:51;;;;;;;3.47;3.10;;;;;;;;;;5016859;28;20611;-71
2021/05/19 08:22:17;;;;;;;2.33;2.13;;;;;;;;;;5015259;28;20181;-71
2021/05/19 08:24:44;;;;;;;4.75;2.53;;;;;;;;;;5018679;28;20180;-70
2021/05/19 08:27:11;;;;;;;3.80;2.75;;;;;;;;;;5022898;28;20196;-70
2021/05/19 08:29:37;;;;;;;5.18;2.70;;;;;;;;;;5021242;28;20204;-70
2021/05/19 08:32:03;;;;;;;2.75;2.50;;;;;;;;;;5022131;28;20268;-70
2021/05/19 08:34:29;;;;;;;3.03;2.55;;;;;;;;;;5023808;28;20188;-70
2021/05/19 08:36:55;;;;;;;2.78;2.15;;;;;;;;;;5024746;28;20176;-70
2021/05/19 08:39:22;;;;;;;2.65;2.33;;;;;;;;;;5024355;28;20188;-70
2021/05/19 08:41:48;;;;;;;4.13;2.38;;;;;;;;;;5024353;28;20571;-70
2021/05/19 08:44:15;;;;;;;2.50;2.30;;;;;;;;;;5016959;28;20191;-70
2021/05/19 08:46:45;;;;;;;2.95;2.33;;;;;;;;;;5020656;28;20664;-70
2021/05/19 08:49:11;;;;;;;2.55;2.03;;;;;;;;;;5024553;28;20242;-71
2021/05/19 08:51:37;;;;;;;2.85;2.50;;;;;;;;;;5023486;28;20213;-71
2021/05/19 08:54:07;;;;;;;3.40;2.38;;;;;;;;;;5025965;28;20177;-71
2021/05/19 08:56:40;;;;;;;4.15;2.40;;;;;;;;;;5026272;28;20187;-71
2021/05/19 08:59:07;;;;;;;2.30;2.10;;;;;;;;;;5040164;28;22314;-71
2021/05/19 09:01:43;;;;;;;3.00;1.83;;;;;;;;;;5027804;28;20176;-71
2021/05/19 09:04:18;;;;;;;2.90;2.20;;;;;;;;;;5018761;28;21032;-71
2021/05/19 09:06:45;;;;;;;2.17;2.03;;;;;;;;;;5020738;28;20180;-71
2021/05/19 09:09:25;;;;;;;2.55;2.03;;;;;;;;;;5022387;28;20860;-71
2021/05/19 09:11:59;;;;;;;2.38;2.17;;;;;;;;;;5024242;28;20204;-71
2021/05/19 09:14:26;;;;;;;3.10;2.42;;;;;;;;;;5023738;28;20188;-71
2021/05/19 09:16:52;;;;;;;3.42;1.85;;;;;;;;;;5025548;28;20205;-71
2021/05/19 09:19:34;;;;;;;2.08;1.63;;;;;;;;;;5025737;28;20211;-71
2021/05/19 09:22:00;;;;;;;2.08;1.88;;;;;;;;;;5033214;28;20296;-71
2021/05/19 09:24:32;;;;;;;4.35;1.98;;;;;;;;;;5045750;28;20193;-71
2021/05/19 09:26:59;;;;;;;2.00;1.90;;;;;;;;;;5046571;28;20303;-71
2021/05/19 09:29:29;;;;;;;2.00;1.73;;;;;;;;;;5034872;28;20975;-71
2021/05/19 09:31:59;;;;;;;3.53;1.92;;;;;;;;;;5024664;28;20565;-71
2021/05/19 09:34:36;;;;;;;2.72;1.85;;;;;;;;;;5032989;28;20206;-71
2021/05/19 09:37:11;;;;;;;4.25;1.83;;;;;;;;;;5024778;28;20219;-71
2021/05/19 09:39:51;;;;;;;4.22;2.30;;;;;;;;;;5024632;28;20207;-71
2021/05/19 09:42:18;;;;;;;3.63;1.70;;;;;;;;;;5027559;28;20240;-71
2021/05/19 09:44:46;;;;;;;2.63;1.52;;;;;;;;;;5025453;28;20196;-71
2021/05/19 09:47:13;;;;;;;4.03;1.40;;;;;;;;;;5020316;28;20184;-71
2021/05/19 09:49:39;;;;;;;3.15;1.30;;;;;;;;;;5023518;28;20235;-71
2021/05/19 09:52:10;;;;;;;2.58;0.93;;;;;;;;;;5023879;28;20220;-70
2021/05/19 09:54:44;;;;;;;1.45;0.80;;;;;;;;;;5025815;28;20699;-70
2021/05/19 09:57:11;;;;;;;2.75;1.30;;;;;;;;;;5023003;28;20223;-70
2021/05/19 09:59:41;;;;;;;3.53;1.00;;;;;;;;;;5021714;28;20223;-70
2021/05/19 10:02:07;;;;;;;1.65;0.95;;;;;;;;;;5023803;28;20240;-71
2021/05/19 10:04:36;;;;;;;2.03;0.95;;;;;;;;;;5021445;28;20185;-70
2021/05/19 10:07:04;;;;;;;1.55;0.90;;;;;;;;;;5023809;28;20188;-71
2021/05/19 10:09:30;;;;;;;2.58;0.93;;;;;;;;;;5028102;28;20207;-71
2021/05/19 10:11:58;;;;;;;4.68;1.00;;;;;;;;;;5022196;28;20204;-70
2021/05/19 10:14:25;;;;;;;1.95;0.75;;;;;;;;;;5021273;28;20549;-71
2021/05/19 10:17:11;;;;;;;1.40;0.70;;;;;;;;;;5032397;28;20188;-71
2021/05/19 10:19:39;;;;;;;1.30;1.00;;;;;;;;;;5023066;28;20211;-71
2021/05/19 10:22:06;;;;;;;2.88;0.77;;;;;;;;;;5023307;28;20192;-71
2021/05/19 10:25:18;;;;;;;2.45;0.70;;;;;;;;;;5023484;28;20196;-71
2021/05/19 10:27:54;;;;;;;1.77;0.75;;;;;;;;;;5022320;28;20567;-70
2021/05/19 10:30:33;;;;;;;2.42;0.75;;;;;;;;;;5025425;28;20215;-70
2021/05/19 10:32:59;;;;;;;3.05;0.75;;;;;;;;;;5016495;28;20688;-71
2021/05/19 10:35:30;;;;;;;2.05;0.80;;;;;;;;;;5024300;28;20192;-71
2021/05/19 10:37:56;;;;;;;6.63;1.10;;;;;;;;;;5021978;28;20370;-71
2021/05/19 10:40:23;;;;;;;1.13;0.73;;;;;;;;;;5024156;28;20710;-71
2021/05/19 10:42:53;;;;;;;0.68;0.50;;;;;;;;;;5023921;28;20215;-71
2021/05/19 10:45:22;;;;;;;0.90;0.50;;;;;;;;;;5026447;28;20184;-71
2021/05/19 10:47:48;;;;;;;0.98;0.60;;;;;;;;;;5020853;28;20214;-71
2021/05/19 10:58:35;;;;;;;1.70;0.50;;;;;;;;;;5022114;28;20203;-70
2021/05/19 11:01:01;;;;;;;2.05;0.45;;;;;;;;;;5024258;28;20708;-70
2021/05/19 11:03:27;;;;;;;0.55;0.30;;;;;;;;;;5022486;28;20267;-70
2021/05/19 11:05:53;;;;;;;1.58;0.40;;;;;;;;;;5022152;28;20561;-70
2021/05/19 11:08:23;;;;;;;2.58;0.30;;;;;;;;;;5031761;28;20184;-70
2021/05/19 11:11:00;;;;;;;1.90;0.35;;;;;;;;;;5020126;28;20204;-71
2021/05/19 11:13:27;;;;;;;2.15;0.40;;;;;;;;;;5019115;28;20242;-72
2021/05/19 11:16:01;;;;;;;1.13;0.38;;;;;;;;;;5025401;28;20916;-72
2021/05/19 11:19:00;;;;;;;4.50;0.57;;;;;;;;;;5024949;28;20270;-71
2021/05/19 11:21:28;;;;;;;1.27;0.43;;;;;;;;;;5026961;28;20200;-72
2021/05/19 11:24:06;;;;;;;3.20;0.40;;;;;;;;;;5022764;28;20191;-71
2021/05/19 11:26:36;;;;;;;1.33;0.30;;;;;;;;;;5028657;28;20180;-72
2021/05/19 11:29:02;;;;;;;2.85;0.55;;;;;;;;;;5017403;28;20271;-72
2021/05/19 11:31:33;;;;;;;0.73;0.30;;;;;;;;;;5025072;28;20212;-72
2021/05/19 11:34:02;;;;;;;1.35;0.52;;;;;;;;;;5019574;28;20209;-72
2021/05/19 11:36:32;;;;;;;0.90;0.60;;;;;;;;;;5020110;28;20279;-72
2021/05/19 11:39:04;;;;;;;2.80;0.63;;;;;;;;;;5025128;28;20172;-72
2021/05/19 11:41:30;;;;;;;2.28;0.40;;;;;;;;;;5021980;28;20211;-72
2021/05/19 11:43:56;;;;;;;2.45;0.50;;;;;;;;;;5020412;28;20279;-72
2021/05/19 11:46:23;;;;;;;2.20;0.43;;;;;;;;;;5024723;28;20631;-72
2021/05/19 11:48:50;;;;;;;1.40;0.40;;;;;;;;;;5026633;28;20188;-70
2021/05/19 11:51:19;;;;;;;2.00;0.68;;;;;;;;;;5028646;28;20592;-72
2021/05/19 11:53:55;;;;;;;1.67;0.40;;;;;;;;;;5020761;28;20259;-70
2021/05/19 11:56:21;;;;;;;3.72;0.70;;;;;;;;;;5027728;28;20207;-70
2021/05/19 11:58:47;;;;;;;0.70;0.30;;;;;;;;;;5023015;28;20214;-72
2021/05/19 12:01:14;;;;;;;1.65;0.40;;;;;;;;;;5022799;28;20244;-70
2021/05/19 12:03:44;;;;;;;1.05;0.40;;;;;;;;;;5024561;28;20557;-70
2021/05/19 12:06:11;;;;;;;1.33;0.70;;;;;;;;;;5021828;28;20200;-71
2021/05/19 12:08:37;;;;;;;3.35;0.73;;;;;;;;;;5021094;28;21027;-71
2021/05/19 12:11:11;;;;;;;3.20;0.47;;;;;;;;;;5016991;28;20220;-71
2021/05/19 12:13:38;;;;;;;2.22;0.60;;;;;;;;;;5020190;28;20562;-71
2021/05/19 12:16:05;;;;;;;1.95;0.68;;;;;;;;;;5022687;28;20184;-71
2021/05/19 12:18:31;;;;;;;2.17;0.50;;;;;;;;;;5022244;28;20232;-71
2021/05/19 12:20:58;;;;;;;1.17;0.50;;;;;;;;;;5016713;28;20200;-71
2021/05/19 12:23:24;;;;;;;1.75;0.52;;;;;;;;;;5026158;28;20188;-71
2021/05/19 12:25:56;;;;;;;2.33;0.50;;;;;;;;;;5025491;28;20242;-71
2021/05/19 12:28:24;;;;;;;1.40;0.52;;;;;;;;;;5021401;28;20192;-71
2021/05/19 12:30:54;;;;;;;2.35;0.85;;;;;;;;;;5032041;28;20299;-71
2021/05/19 12:33:24;;;;;;;2.03;0.70;;;;;;;;;;5025789;28;20211;-71
2021/05/19 12:35:50;;;;;;;6.75;1.25;;;;;;;;;;5027742;28;20641;-71
2021/05/19 12:38:19;;;;;;;4.05;0.75;;;;;;;;;;5022010;28;20177;-71
2021/05/19 12:40:47;;;;;;;3.00;0.50;;;;;;;;;;5021148;28;20291;-71
2021/05/19 12:43:21;;;;;;;1.55;0.70;;;;;;;;;;5024795;28;20178;-71
2021/05/19 12:45:50;;;;;;;3.08;0.70;;;;;;;;;;5021433;28;20240;-71
2021/05/19 12:48:17;;;;;;;3.92;0.60;;;;;;;;;;5017451;28;20197;-71
2021/05/19 12:50:49;;;;;;;2.45;0.70;;;;;;;;;;5024138;28;20250;-71
2021/05/19 12:53:34;;;;;;;2.67;0.43;;;;;;;;;;5014640;28;20207;-71
2021/05/19 12:56:10;;;;;;;1.65;0.50;;;;;;;;;;5019688;28;20187;-71
2021/05/19 12:58:56;;;;;;;2.78;0.50;;;;;;;;;;5027702;28;20180;-71
2021/05/19 13:01:22;;;;;;;2.05;0.55;;;;;;;;;;5027854;28;20250;-72
2021/05/19 13:03:48;;;;;;;2.80;1.00;;;;;;;;;;5027050;28;20187;-71
2021/05/19 13:06:14;;;;;;;1.90;0.88;;;;;;;;;;5020290;28;20189;-71
2021/05/19 13:08:40;;;;;;;2.45;0.60;;;;;;;;;;5027289;28;20196;-71
2021/05/19 13:11:18;;;;;;;2.17;0.80;;;;;;;;;;5022424;28;20769;-72
2021/05/19 13:13:46;;;;;;;2.30;0.70;;;;;;;;;;5024775;28;20584;-72
2021/05/19 13:16:19;;;;;;;1.13;0.50;;;;;;;;;;5036565;28;20279;-72
2021/05/19 13:18:55;;;;;;;2.85;0.60;;;;;;;;;;5029288;28;20207;-72
2021/05/19 13:21:25;;;;;;;1.05;0.50;;;;;;;;;;5025937;28;20204;-72
2021/05/19 13:23:56;;;;;;;2.65;0.75;;;;;;;;;;5025083;28;20678;-72
2021/05/19 13:26:27;;;;;;;2.50;0.60;;;;;;;;;;5028915;28;20795;-72
2021/05/19 13:28:54;;;;;;;1.92;0.70;;;;;;;;;;5025600;28;20241;-72
2021/05/19 13:31:22;;;;;;;3.30;1.00;;;;;;;;;;5027359;28;20559;-72
2021/05/19 13:38:53;;;;;;;4.15;1.00;;;;;;;;;;5025013;28;20196;-72
2021/05/19 13:41:19;;;;;;;2.28;0.73;;;;;;;;;;5028348;28;20242;-72
2021/05/19 13:43:45;;;;;;;0.98;0.70;;;;;;;;;;5032931;28;20276;-72
2021/05/19 13:46:12;;;;;;;1.45;0.60;;;;;;;;;;5022336;28;20191;-72
2021/05/19 13:48:39;;;;;;;3.88;2.40;;;;;;;;;;5029021;28;20284;-72
2021/05/19 13:51:05;;;;;;;5.20;0.80;;;;;;;;;;5020785;28;20339;-72
2021/05/19 13:53:31;;;;;;;2.63;1.00;;;;;;;;;;5026963;28;20672;-72
2021/05/19 13:56:02;;;;;;;1.85;0.70;;;;;;;;;;5019436;28;20185;-72
2021/05/19 13:58:32;;;;;;;2.05;0.80;;;;;;;;;;5028056;28;20656;-72
2021/05/19 14:00:58;;;;;;;3.05;0.80;;;;;;;;;;5026678;28;20227;-72
2021/05/19 14:03:27;;;;;;;1.40;0.80;;;;;;;;;;5026235;28;20691;-72
2021/05/19 14:05:56;;;;;;;3.90;0.82;;;;;;;;;;5023184;28;20250;-72
2021/05/19 14:08:23;;;;;;;3.50;0.80;;;;;;;;;;5027614;28;20908;-72
2021/05/19 14:11:09;;;;;;;2.20;0.98;;;;;;;;;;5025390;28;20214;-72
2021/05/19 14:13:43;;;;;;;2.60;1.08;;;;;;;;;;5022475;28;20172;-72
2021/05/19 14:16:29;;;;;;;2.22;1.00;;;;;;;;;;5019251;28;20199;-73
2021/05/19 14:19:05;;;;;;;2.40;0.70;;;;;;;;;;5021204;28;20283;-72
2021/05/19 14:29:16;;;;;;;2.47;0.70;;;;;;;;;;5025906;28;20196;-72
2021/05/19 14:31:42;;;;;;;1.63;0.90;;;;;;;;;;5023551;28;20254;-72
2021/05/19 14:34:09;;;;;;;1.98;0.73;;;;;;;;;;5019719;28;20531;-72
2021/05/19 15:00:46;;;;;;;3.10;1.08;;;;;;;;;;5025471;28;20918;-72
2021/05/19 15:03:12;;;;;;;1.50;1.05;;;;;;;;;;5026140;28;20187;-73
2021/05/19 15:05:39;;;;;;;3.13;1.27;;;;;;;;;;5019604;28;20605;-73
2021/05/19 15:08:05;;;;;;;3.13;1.30;;;;;;;;;;5026325;28;20185;-73
2021/05/19 15:10:32;;;;;;;1.73;1.00;;;;;;;;;;5025043;28;21723;-73
2021/05/19 15:12:58;;;;;;;2.53;1.13;;;;;;;;;;5023025;28;20208;-73
2021/05/19 15:15:24;;;;;;;2.25;1.25;;;;;;;;;;5022094;28;20648;-73
2021/05/19 15:17:50;;;;;;;2.08;0.80;;;;;;;;;;5024245;28;20239;-73
2021/05/19 15:20:16;;;;;;;1.33;0.93;;;;;;;;;;5024465;28;20206;-73
2021/05/19 15:22:42;;;;;;;2.25;1.00;;;;;;;;;;5026538;28;20290;-73
2021/05/19 15:25:08;;;;;;;2.55;1.20;;;;;;;;;;5020277;28;20185;-73
2021/05/19 15:27:34;;;;;;;1.42;1.20;;;;;;;;;;5027275;28;20184;-73
2021/05/19 15:30:00;;;;;;;1.40;1.10;;;;;;;;;;5017094;28;20247;-73
2021/05/19 15:32:26;;;;;;;2.60;1.42;;;;;;;;;;5020594;28;20243;-73
2021/05/19 15:34:52;;;;;;;1.23;1.08;;;;;;;;;;5020233;28;20185;-73
2021/05/19 15:37:18;;;;;;;1.60;1.30;;;;;;;;;;5020837;28;20184;-73
2021/05/19 15:39:48;;;;;;;3.08;1.42;;;;;;;;;;5023244;28;20200;-73